sensor_id;sensor_type;location;lat;lon;timestamp;P1;durP1;ratioP1;P2;durP2;ratioP2
1346;SDS011;667;48.796;9.480;2022-11-06T00:00:29;11.67;;;9.20;;
1346;SDS011;667;48.796;9.480;2022-11-06T00:02:58;8.50;;;7.50;;
1346;SDS011;667;48.796;9.480;2022-11-06T00:05:24;17.05;;;9.65;;
1346;SDS011;667;48.796;9.480;2022-11-06T00:08:10;13.40;;;9.10;;
1346;SDS011;667;48.796;9.480;2022-11-06T00:10:35;16.87;;;10.10;;
1346;SDS011;667;48.796;9.480;2022-11-06T00:13:01;20.57;;;9.47;;
1346;SDS011;667;48.796;9.480;2022-11-06T00:15:27;10.80;;;9.70;;
1346;SDS011;667;48.796;9.480;2022-11-06T00:17:53;13.23;;;9.73;;
1346;SDS011;667;48.796;9.480;2022-11-06T00:20:18;30.70;;;10.73;;
1346;SDS011;667;48.796;9.480;2022-11-06T00:22:44;18.33;;;9.73;;
1346;SDS011;667;48.796;9.480;2022-11-06T00:25:10;10.80;;;9.70;;
1346;SDS011;667;48.796;9.480;2022-11-06T00:27:36;20.25;;;10.23;;
1346;SDS011;667;48.796;9.480;2022-11-06T00:30:03;33.33;;;11.40;;
1346;SDS011;667;48.796;9.480;2022-11-06T00:32:30;23.10;;;11.35;;
1346;SDS011;667;48.796;9.480;2022-11-06T00:34:55;21.33;;;10.90;;
1346;SDS011;667;48.796;9.480;2022-11-06T00:37:21;24.43;;;10.80;;
1346;SDS011;667;48.796;9.480;2022-11-06T00:39:46;15.40;;;10.00;;
1346;SDS011;667;48.796;9.480;2022-11-06T00:42:12;29.30;;;12.00;;
1346;SDS011;667;48.796;9.480;2022-11-06T00:44:37;25.33;;;9.77;;
1346;SDS011;667;48.796;9.480;2022-11-06T00:47:03;23.07;;;10.03;;
1346;SDS011;667;48.796;9.480;2022-11-06T00:49:29;19.03;;;11.23;;
1346;SDS011;667;48.796;9.480;2022-11-06T00:51:54;13.70;;;9.20;;
1346;SDS011;667;48.796;9.480;2022-11-06T00:54:20;34.10;;;10.10;;
1346;SDS011;667;48.796;9.480;2022-11-06T00:56:45;29.67;;;10.07;;
1346;SDS011;667;48.796;9.480;2022-11-06T00:59:11;35.37;;;12.07;;
1346;SDS011;667;48.796;9.480;2022-11-06T01:01:39;20.60;;;11.05;;
1346;SDS011;667;48.796;9.480;2022-11-06T01:04:11;17.70;;;10.52;;
1346;SDS011;667;48.796;9.480;2022-11-06T01:06:41;18.13;;;9.90;;
1346;SDS011;667;48.796;9.480;2022-11-06T01:09:09;21.55;;;9.95;;
1346;SDS011;667;48.796;9.480;2022-11-06T01:11:38;26.10;;;10.55;;
1346;SDS011;667;48.796;9.480;2022-11-06T01:14:06;19.98;;;9.45;;
1346;SDS011;667;48.796;9.480;2022-11-06T01:16:33;17.50;;;10.30;;
1346;SDS011;667;48.796;9.480;2022-11-06T01:18:59;16.73;;;10.47;;
1346;SDS011;667;48.796;9.480;2022-11-06T01:21:26;20.10;;;10.27;;
1346;SDS011;667;48.796;9.480;2022-11-06T01:23:54;16.48;;;9.20;;
1346;SDS011;667;48.796;9.480;2022-11-06T01:26:22;19.40;;;9.20;;
1346;SDS011;667;48.796;9.480;2022-11-06T01:28:48;17.20;;;10.18;;
1346;SDS011;667;48.796;9.480;2022-11-06T01:31:15;12.53;;;8.90;;
1346;SDS011;667;48.796;9.480;2022-11-06T01:33:43;15.27;;;9.52;;
1346;SDS011;667;48.796;9.480;2022-11-06T01:36:09;35.72;;;10.18;;
1346;SDS011;667;48.796;9.480;2022-11-06T01:38:44;22.73;;;10.38;;
1346;SDS011;667;48.796;9.480;2022-11-06T01:41:25;14.88;;;9.80;;
1346;SDS011;667;48.796;9.480;2022-11-06T01:43:56;13.57;;;9.73;;
1346;SDS011;667;48.796;9.480;2022-11-06T01:46:25;15.77;;;9.30;;
1346;SDS011;667;48.796;9.480;2022-11-06T01:48:53;31.38;;;9.95;;
1346;SDS011;667;48.796;9.480;2022-11-06T01:51:23;27.80;;;9.85;;
1346;SDS011;667;48.796;9.480;2022-11-06T01:53:52;20.92;;;9.95;;
1346;SDS011;667;48.796;9.480;2022-11-06T01:56:19;12.30;;;9.50;;
1346;SDS011;667;48.796;9.480;2022-11-06T01:58:46;13.00;;;8.98;;
1346;SDS011;667;48.796;9.480;2022-11-06T02:01:15;14.30;;;9.98;;
1346;SDS011;667;48.796;9.480;2022-11-06T02:03:43;13.43;;;9.67;;
1346;SDS011;667;48.796;9.480;2022-11-06T02:06:14;28.98;;;9.65;;
1346;SDS011;667;48.796;9.480;2022-11-06T02:08:40;47.17;;;12.63;;
1346;SDS011;667;48.796;9.480;2022-11-06T02:11:05;21.83;;;9.37;;
1346;SDS011;667;48.796;9.480;2022-11-06T02:22:17;27.33;;;10.85;;
1346;SDS011;667;48.796;9.480;2022-11-06T02:27:22;35.35;;;11.63;;
1346;SDS011;667;48.796;9.480;2022-11-06T02:32:29;34.35;;;10.88;;
1346;SDS011;667;48.796;9.480;2022-11-06T02:38:12;29.80;;;10.27;;
1346;SDS011;667;48.796;9.480;2022-11-06T02:40:43;21.00;;;9.20;;
1346;SDS011;667;48.796;9.480;2022-11-06T02:43:12;18.80;;;9.30;;
1346;SDS011;667;48.796;9.480;2022-11-06T02:45:48;9.80;;;7.85;;
1346;SDS011;667;48.796;9.480;2022-11-06T02:48:20;17.63;;;9.25;;
1346;SDS011;667;48.796;9.480;2022-11-06T02:50:52;32.38;;;9.27;;
1346;SDS011;667;48.796;9.480;2022-11-06T02:53:22;33.13;;;9.85;;
1346;SDS011;667;48.796;9.480;2022-11-06T02:55:50;24.42;;;9.15;;
1346;SDS011;667;48.796;9.480;2022-11-06T02:58:24;22.90;;;9.43;;
1346;SDS011;667;48.796;9.480;2022-11-06T03:00:56;27.10;;;10.07;;
1346;SDS011;667;48.796;9.480;2022-11-06T03:03:30;20.77;;;9.40;;
1346;SDS011;667;48.796;9.480;2022-11-06T03:14:06;19.40;;;8.77;;
1346;SDS011;667;48.796;9.480;2022-11-06T03:24:26;23.20;;;9.10;;
1346;SDS011;667;48.796;9.480;2022-11-06T03:27:01;12.48;;;8.23;;
1346;SDS011;667;48.796;9.480;2022-11-06T03:32:16;8.75;;;7.80;;
1346;SDS011;667;48.796;9.480;2022-11-06T03:35:14;26.15;;;7.80;;
1346;SDS011;667;48.796;9.480;2022-11-06T03:40:25;33.17;;;9.98;;
1346;SDS011;667;48.796;9.480;2022-11-06T03:42:54;22.95;;;8.15;;
1346;SDS011;667;48.796;9.480;2022-11-06T03:45:25;28.13;;;8.18;;
1346;SDS011;667;48.796;9.480;2022-11-06T03:51:12;17.35;;;9.63;;
1346;SDS011;667;48.796;9.480;2022-11-06T03:59:07;10.10;;;8.15;;
1346;SDS011;667;48.796;9.480;2022-11-06T04:01:35;16.00;;;8.55;;
1346;SDS011;667;48.796;9.480;2022-11-06T04:04:10;28.13;;;9.02;;
1346;SDS011;667;48.796;9.480;2022-11-06T04:07:04;11.05;;;6.78;;
1346;SDS011;667;48.796;9.480;2022-11-06T04:09:34;15.38;;;7.63;;
1346;SDS011;667;48.796;9.480;2022-11-06T04:12:22;23.83;;;7.28;;
1346;SDS011;667;48.796;9.480;2022-11-06T04:15:09;16.50;;;6.68;;
1346;SDS011;667;48.796;9.480;2022-11-06T04:17:37;28.08;;;7.28;;
1346;SDS011;667;48.796;9.480;2022-11-06T04:20:06;11.73;;;7.10;;
1346;SDS011;667;48.796;9.480;2022-11-06T04:25:14;10.57;;;6.82;;
1346;SDS011;667;48.796;9.480;2022-11-06T04:41:16;8.32;;;7.00;;
1346;SDS011;667;48.796;9.480;2022-11-06T04:43:47;14.35;;;7.85;;
1346;SDS011;667;48.796;9.480;2022-11-06T04:46:31;16.40;;;7.70;;
1346;SDS011;667;48.796;9.480;2022-11-06T04:49:00;13.60;;;7.07;;
1346;SDS011;667;48.796;9.480;2022-11-06T04:51:30;14.75;;;7.40;;
1346;SDS011;667;48.796;9.480;2022-11-06T04:53:59;17.15;;;7.20;;
1346;SDS011;667;48.796;9.480;2022-11-06T04:56:27;16.02;;;7.25;;
1346;SDS011;667;48.796;9.480;2022-11-06T04:58:55;16.45;;;7.53;;
1346;SDS011;667;48.796;9.480;2022-11-06T05:01:21;12.73;;;7.03;;
1346;SDS011;667;48.796;9.480;2022-11-06T05:03:46;22.37;;;7.27;;
1346;SDS011;667;48.796;9.480;2022-11-06T05:06:12;20.10;;;7.40;;
1346;SDS011;667;48.796;9.480;2022-11-06T05:08:38;16.33;;;6.43;;
1346;SDS011;667;48.796;9.480;2022-11-06T05:11:04;20.50;;;7.50;;
1346;SDS011;667;48.796;9.480;2022-11-06T05:13:30;12.75;;;6.78;;
1346;SDS011;667;48.796;9.480;2022-11-06T05:15:56;16.77;;;6.90;;
1346;SDS011;667;48.796;9.480;2022-11-06T05:18:22;21.23;;;6.45;;
1346;SDS011;667;48.796;9.480;2022-11-06T05:20:49;25.00;;;7.57;;
1346;SDS011;667;48.796;9.480;2022-11-06T05:23:34;9.13;;;6.20;;
1346;SDS011;667;48.796;9.480;2022-11-06T05:26:02;13.95;;;7.55;;
1346;SDS011;667;48.796;9.480;2022-11-06T05:28:31;23.13;;;8.07;;
1346;SDS011;667;48.796;9.480;2022-11-06T05:30:57;15.93;;;7.07;;
1346;SDS011;667;48.796;9.480;2022-11-06T05:33:22;44.37;;;8.37;;
1346;SDS011;667;48.796;9.480;2022-11-06T05:35:48;26.67;;;8.97;;
1346;SDS011;667;48.796;9.480;2022-11-06T05:38:15;22.20;;;6.95;;
1346;SDS011;667;48.796;9.480;2022-11-06T05:40:40;21.83;;;8.37;;
1346;SDS011;667;48.796;9.480;2022-11-06T05:43:06;28.83;;;7.47;;
1346;SDS011;667;48.796;9.480;2022-11-06T05:45:31;15.27;;;6.87;;
1346;SDS011;667;48.796;9.480;2022-11-06T05:47:57;18.70;;;7.37;;
1346;SDS011;667;48.796;9.480;2022-11-06T05:50:25;18.40;;;6.75;;
1346;SDS011;667;48.796;9.480;2022-11-06T05:52:51;26.40;;;7.90;;
1346;SDS011;667;48.796;9.480;2022-11-06T05:55:16;20.57;;;7.10;;
1346;SDS011;667;48.796;9.480;2022-11-06T05:57:42;23.13;;;6.37;;
1346;SDS011;667;48.796;9.480;2022-11-06T06:00:08;22.42;;;6.10;;
1346;SDS011;667;48.796;9.480;2022-11-06T06:02:35;20.02;;;6.85;;
1346;SDS011;667;48.796;9.480;2022-11-06T06:05:02;28.05;;;7.32;;
1346;SDS011;667;48.796;9.480;2022-11-06T06:07:28;35.50;;;9.50;;
1346;SDS011;667;48.796;9.480;2022-11-06T06:09:55;31.42;;;9.15;;
1346;SDS011;667;48.796;9.480;2022-11-06T06:12:20;26.17;;;6.90;;
1346;SDS011;667;48.796;9.480;2022-11-06T06:14:48;16.35;;;5.72;;
1346;SDS011;667;48.796;9.480;2022-11-06T06:17:14;38.77;;;7.40;;
1346;SDS011;667;48.796;9.480;2022-11-06T06:19:39;20.83;;;7.07;;
1346;SDS011;667;48.796;9.480;2022-11-06T06:22:05;11.97;;;5.40;;
1346;SDS011;667;48.796;9.480;2022-11-06T06:24:31;10.57;;;5.70;;
1346;SDS011;667;48.796;9.480;2022-11-06T06:26:56;6.27;;;5.50;;
1346;SDS011;667;48.796;9.480;2022-11-06T06:29:22;16.30;;;6.97;;
1346;SDS011;667;48.796;9.480;2022-11-06T06:31:47;13.30;;;6.80;;
1346;SDS011;667;48.796;9.480;2022-11-06T06:34:13;12.85;;;5.20;;
1346;SDS011;667;48.796;9.480;2022-11-06T06:36:39;12.40;;;6.20;;
1346;SDS011;667;48.796;9.480;2022-11-06T06:39:05;34.90;;;9.40;;
1346;SDS011;667;48.796;9.480;2022-11-06T06:41:30;19.47;;;7.03;;
1346;SDS011;667;48.796;9.480;2022-11-06T06:43:57;13.25;;;5.43;;
1346;SDS011;667;48.796;9.480;2022-11-06T06:46:22;13.40;;;6.50;;
1346;SDS011;667;48.796;9.480;2022-11-06T06:48:48;14.13;;;5.77;;
1346;SDS011;667;48.796;9.480;2022-11-06T06:51:14;8.80;;;5.27;;
1346;SDS011;667;48.796;9.480;2022-11-06T06:53:39;8.83;;;5.80;;
1346;SDS011;667;48.796;9.480;2022-11-06T06:56:05;15.03;;;5.90;;
1346;SDS011;667;48.796;9.480;2022-11-06T06:58:31;19.20;;;6.50;;
1346;SDS011;667;48.796;9.480;2022-11-06T07:01:00;16.60;;;8.43;;
1346;SDS011;667;48.796;9.480;2022-11-06T07:03:27;22.45;;;9.57;;
1346;SDS011;667;48.796;9.480;2022-11-06T07:05:53;31.10;;;7.63;;
1346;SDS011;667;48.796;9.480;2022-11-06T07:08:18;25.47;;;6.70;;
1346;SDS011;667;48.796;9.480;2022-11-06T07:10:44;19.80;;;7.40;;
1346;SDS011;667;48.796;9.480;2022-11-06T07:13:10;18.47;;;7.93;;
1346;SDS011;667;48.796;9.480;2022-11-06T07:15:35;21.53;;;7.20;;
1346;SDS011;667;48.796;9.480;2022-11-06T07:18:04;27.80;;;7.73;;
1346;SDS011;667;48.796;9.480;2022-11-06T07:20:31;32.30;;;10.60;;
1346;SDS011;667;48.796;9.480;2022-11-06T07:22:57;27.40;;;7.20;;
1346;SDS011;667;48.796;9.480;2022-11-06T07:25:24;28.87;;;7.73;;
1346;SDS011;667;48.796;9.480;2022-11-06T07:27:50;15.20;;;7.40;;
1346;SDS011;667;48.796;9.480;2022-11-06T07:30:15;26.40;;;8.33;;
1346;SDS011;667;48.796;9.480;2022-11-06T07:32:41;24.73;;;7.90;;
1346;SDS011;667;48.796;9.480;2022-11-06T07:35:07;26.95;;;9.00;;
1346;SDS011;667;48.796;9.480;2022-11-06T07:37:34;48.72;;;10.60;;
1346;SDS011;667;48.796;9.480;2022-11-06T07:40:00;41.90;;;9.38;;
1346;SDS011;667;48.796;9.480;2022-11-06T07:42:26;27.83;;;7.80;;
1346;SDS011;667;48.796;9.480;2022-11-06T07:44:52;22.83;;;8.80;;
1346;SDS011;667;48.796;9.480;2022-11-06T07:47:19;35.42;;;7.07;;
1346;SDS011;667;48.796;9.480;2022-11-06T07:49:45;32.33;;;8.23;;
1346;SDS011;667;48.796;9.480;2022-11-06T07:52:11;18.30;;;8.00;;
1346;SDS011;667;48.796;9.480;2022-11-06T07:54:36;27.43;;;8.77;;
1346;SDS011;667;48.796;9.480;2022-11-06T07:57:02;28.27;;;9.17;;
1346;SDS011;667;48.796;9.480;2022-11-06T07:59:28;28.53;;;8.23;;
1346;SDS011;667;48.796;9.480;2022-11-06T08:01:53;38.13;;;8.90;;
1346;SDS011;667;48.796;9.480;2022-11-06T08:04:19;18.40;;;8.63;;
1346;SDS011;667;48.796;9.480;2022-11-06T08:06:44;26.40;;;9.67;;
1346;SDS011;667;48.796;9.480;2022-11-06T08:09:10;33.40;;;8.80;;
1346;SDS011;667;48.796;9.480;2022-11-06T08:11:35;20.73;;;9.50;;
1346;SDS011;667;48.796;9.480;2022-11-06T08:14:01;113.37;;;48.13;;
1346;SDS011;667;48.796;9.480;2022-11-06T08:16:27;53.50;;;18.95;;
1346;SDS011;667;48.796;9.480;2022-11-06T08:18:53;61.30;;;29.70;;
1346;SDS011;667;48.796;9.480;2022-11-06T08:21:19;21.17;;;11.07;;
1346;SDS011;667;48.796;9.480;2022-11-06T08:23:44;48.83;;;16.73;;
1346;SDS011;667;48.796;9.480;2022-11-06T08:26:10;52.10;;;22.60;;
1346;SDS011;667;48.796;9.480;2022-11-06T08:28:36;24.85;;;10.68;;
1346;SDS011;667;48.796;9.480;2022-11-06T08:31:03;46.90;;;24.60;;
1346;SDS011;667;48.796;9.480;2022-11-06T08:33:33;40.95;;;13.02;;
1346;SDS011;667;48.796;9.480;2022-11-06T08:36:03;27.73;;;10.70;;
1346;SDS011;667;48.796;9.480;2022-11-06T08:38:30;47.90;;;11.20;;
1346;SDS011;667;48.796;9.480;2022-11-06T08:40:55;35.00;;;10.83;;
1346;SDS011;667;48.796;9.480;2022-11-06T08:43:21;27.87;;;11.30;;
1346;SDS011;667;48.796;9.480;2022-11-06T08:45:50;13.27;;;10.15;;
1346;SDS011;667;48.796;9.480;2022-11-06T08:48:15;14.20;;;10.40;;
1346;SDS011;667;48.796;9.480;2022-11-06T08:50:41;23.37;;;11.47;;
1346;SDS011;667;48.796;9.480;2022-11-06T08:53:07;29.23;;;11.27;;
1346;SDS011;667;48.796;9.480;2022-11-06T08:55:33;20.60;;;9.50;;
1346;SDS011;667;48.796;9.480;2022-11-06T08:58:00;10.00;;;9.07;;
1346;SDS011;667;48.796;9.480;2022-11-06T09:00:27;13.68;;;8.63;;
1346;SDS011;667;48.796;9.480;2022-11-06T09:02:59;15.95;;;9.18;;
1346;SDS011;667;48.796;9.480;2022-11-06T09:05:29;12.02;;;10.02;;
1346;SDS011;667;48.796;9.480;2022-11-06T09:07:56;10.20;;;9.10;;
1346;SDS011;667;48.796;9.480;2022-11-06T09:10:22;10.18;;;9.23;;
1346;SDS011;667;48.796;9.480;2022-11-06T09:12:49;9.93;;;8.00;;
1346;SDS011;667;48.796;9.480;2022-11-06T09:15:15;9.43;;;8.53;;
1346;SDS011;667;48.796;9.480;2022-11-06T09:17:48;8.50;;;7.70;;
1346;SDS011;667;48.796;9.480;2022-11-06T09:20:15;8.55;;;7.65;;
1346;SDS011;667;48.796;9.480;2022-11-06T09:22:43;8.75;;;7.80;;
1346;SDS011;667;48.796;9.480;2022-11-06T09:25:09;7.85;;;7.05;;
1346;SDS011;667;48.796;9.480;2022-11-06T09:27:48;6.57;;;5.97;;
1346;SDS011;667;48.796;9.480;2022-11-06T09:30:16;7.18;;;6.47;;
1346;SDS011;667;48.796;9.480;2022-11-06T09:32:45;7.72;;;7.00;;
1346;SDS011;667;48.796;9.480;2022-11-06T09:35:11;7.93;;;7.13;;
1346;SDS011;667;48.796;9.480;2022-11-06T09:37:37;9.30;;;8.40;;
1346;SDS011;667;48.796;9.480;2022-11-06T09:40:03;8.77;;;7.97;;
1346;SDS011;667;48.796;9.480;2022-11-06T09:42:38;9.27;;;8.37;;
1346;SDS011;667;48.796;9.480;2022-11-06T09:45:10;9.13;;;8.23;;
1346;SDS011;667;48.796;9.480;2022-11-06T09:47:42;8.00;;;7.20;;
1346;SDS011;667;48.796;9.480;2022-11-06T09:50:19;11.27;;;10.02;;
1346;SDS011;667;48.796;9.480;2022-11-06T09:52:54;9.55;;;8.55;;
1346;SDS011;667;48.796;9.480;2022-11-06T09:55:38;11.57;;;9.77;;
1346;SDS011;667;48.796;9.480;2022-11-06T09:58:20;9.18;;;8.38;;
1346;SDS011;667;48.796;9.480;2022-11-06T10:00:50;9.50;;;8.18;;
1346;SDS011;667;48.796;9.480;2022-11-06T10:05:47;9.65;;;8.75;;
1346;SDS011;667;48.796;9.480;2022-11-06T10:08:20;9.07;;;8.20;;
1346;SDS011;667;48.796;9.480;2022-11-06T10:24:22;9.30;;;8.50;;
1346;SDS011;667;48.796;9.480;2022-11-06T10:26:55;9.80;;;8.90;;
1346;SDS011;667;48.796;9.480;2022-11-06T10:34:57;10.47;;;9.50;;
1346;SDS011;667;48.796;9.480;2022-11-06T10:37:34;9.67;;;8.77;;
1346;SDS011;667;48.796;9.480;2022-11-06T10:40:13;10.03;;;9.13;;
1346;SDS011;667;48.796;9.480;2022-11-06T10:42:48;9.47;;;8.60;;
1346;SDS011;667;48.796;9.480;2022-11-06T10:45:21;9.10;;;8.20;;
1346;SDS011;667;48.796;9.480;2022-11-06T10:47:51;7.70;;;7.10;;
1346;SDS011;667;48.796;9.480;2022-11-06T10:50:19;7.57;;;6.97;;
1346;SDS011;667;48.796;9.480;2022-11-06T10:58:00;6.50;;;5.80;;
1346;SDS011;667;48.796;9.480;2022-11-06T11:00:27;5.37;;;4.87;;
1346;SDS011;667;48.796;9.480;2022-11-06T11:02:57;5.10;;;4.40;;
1346;SDS011;667;48.796;9.480;2022-11-06T11:05:25;4.80;;;4.33;;
1346;SDS011;667;48.796;9.480;2022-11-06T11:07:56;5.13;;;4.67;;
1346;SDS011;667;48.796;9.480;2022-11-06T11:12:47;4.97;;;4.43;;
1346;SDS011;667;48.796;9.480;2022-11-06T11:15:15;5.20;;;4.80;;
1346;SDS011;667;48.796;9.480;2022-11-06T11:17:43;5.97;;;5.45;;
1346;SDS011;667;48.796;9.480;2022-11-06T11:20:33;4.73;;;4.30;;
1346;SDS011;667;48.796;9.480;2022-11-06T11:25:46;8.63;;;6.75;;
1346;SDS011;667;48.796;9.480;2022-11-06T11:33:33;7.57;;;6.78;;
1346;SDS011;667;48.796;9.480;2022-11-06T11:36:00;6.18;;;4.93;;
1346;SDS011;667;48.796;9.480;2022-11-06T11:38:28;6.47;;;5.37;;
1346;SDS011;667;48.796;9.480;2022-11-06T11:41:36;4.80;;;4.30;;
1346;SDS011;667;48.796;9.480;2022-11-06T11:43:43;3.90;;;3.50;;
1346;SDS011;667;48.796;9.480;2022-11-06T11:46:19;3.85;;;3.55;;
1346;SDS011;667;48.796;9.480;2022-11-06T11:48:54;5.87;;;5.30;;
1346;SDS011;667;48.796;9.480;2022-11-06T11:56:42;9.00;;;7.10;;
1346;SDS011;667;48.796;9.480;2022-11-06T12:00:00;4.68;;;4.28;;
1346;SDS011;667;48.796;9.480;2022-11-06T12:02:15;4.68;;;4.25;;
1346;SDS011;667;48.796;9.480;2022-11-06T12:04:42;5.07;;;4.63;;
1346;SDS011;667;48.796;9.480;2022-11-06T12:07:21;5.80;;;5.07;;
1346;SDS011;667;48.796;9.480;2022-11-06T12:09:49;6.18;;;4.55;;
1346;SDS011;667;48.796;9.480;2022-11-06T12:12:33;4.80;;;4.30;;
1346;SDS011;667;48.796;9.480;2022-11-06T12:17:49;3.92;;;3.60;;
1346;SDS011;667;48.796;9.480;2022-11-06T12:20:21;5.05;;;3.95;;
1346;SDS011;667;48.796;9.480;2022-11-06T12:22:51;4.18;;;3.78;;
1346;SDS011;667;48.796;9.480;2022-11-06T12:25:21;4.38;;;3.95;;
1346;SDS011;667;48.796;9.480;2022-11-06T12:27:51;3.45;;;3.15;;
1346;SDS011;667;48.796;9.480;2022-11-06T12:30:19;5.40;;;4.90;;
1346;SDS011;667;48.796;9.480;2022-11-06T12:35:25;5.78;;;5.25;;
1346;SDS011;667;48.796;9.480;2022-11-06T12:40:34;6.78;;;4.72;;
1346;SDS011;667;48.796;9.480;2022-11-06T12:50:56;5.23;;;4.13;;
1346;SDS011;667;48.796;9.480;2022-11-06T12:53:46;4.35;;;3.95;;
1346;SDS011;667;48.796;9.480;2022-11-06T12:56:18;4.70;;;4.25;;
1346;SDS011;667;48.796;9.480;2022-11-06T12:58:57;4.32;;;4.00;;
1346;SDS011;667;48.796;9.480;2022-11-06T13:01:43;6.00;;;4.85;;
1346;SDS011;667;48.796;9.480;2022-11-06T13:07:01;3.78;;;3.45;;
1346;SDS011;667;48.796;9.480;2022-11-06T13:18:02;4.43;;;4.03;;
1346;SDS011;667;48.796;9.480;2022-11-06T13:23:07;4.97;;;3.75;;
1346;SDS011;667;48.796;9.480;2022-11-06T13:25:48;4.00;;;3.60;;
1346;SDS011;667;48.796;9.480;2022-11-06T13:28:44;6.22;;;4.38;;
1346;SDS011;667;48.796;9.480;2022-11-06T13:31:15;4.10;;;3.70;;
1346;SDS011;667;48.796;9.480;2022-11-06T13:33:48;4.70;;;4.30;;
1346;SDS011;667;48.796;9.480;2022-11-06T13:36:20;3.78;;;3.47;;
1346;SDS011;667;48.796;9.480;2022-11-06T13:38:54;4.32;;;3.60;;
1346;SDS011;667;48.796;9.480;2022-11-06T13:41:27;4.05;;;3.47;;
1346;SDS011;667;48.796;9.480;2022-11-06T13:52:01;5.15;;;4.72;;
1346;SDS011;667;48.796;9.480;2022-11-06T14:08:16;5.07;;;4.40;;
1346;SDS011;667;48.796;9.480;2022-11-06T14:10:55;6.05;;;5.45;;
1346;SDS011;667;48.796;9.480;2022-11-06T14:13:24;7.90;;;6.30;;
1346;SDS011;667;48.796;9.480;2022-11-06T14:16:00;6.75;;;6.03;;
1346;SDS011;667;48.796;9.480;2022-11-06T14:18:28;5.15;;;4.63;;
1346;SDS011;667;48.796;9.480;2022-11-06T14:26:35;7.10;;;5.53;;
1346;SDS011;667;48.796;9.480;2022-11-06T14:34:56;7.45;;;6.20;;
1346;SDS011;667;48.796;9.480;2022-11-06T14:40:11;7.23;;;5.80;;
1346;SDS011;667;48.796;9.480;2022-11-06T14:42:44;6.80;;;6.10;;
1346;SDS011;667;48.796;9.480;2022-11-06T14:45:17;6.78;;;6.03;;
1346;SDS011;667;48.796;9.480;2022-11-06T14:52:46;7.20;;;6.45;;
1346;SDS011;667;48.796;9.480;2022-11-06T14:55:21;6.78;;;6.07;;
1346;SDS011;667;48.796;9.480;2022-11-06T14:57:57;7.03;;;6.32;;
1346;SDS011;667;48.796;9.480;2022-11-06T15:01:01;7.25;;;6.25;;
1346;SDS011;667;48.796;9.480;2022-11-06T15:06:05;12.38;;;8.50;;
1346;SDS011;667;48.796;9.480;2022-11-06T15:16:27;6.07;;;5.47;;
1346;SDS011;667;48.796;9.480;2022-11-06T15:19:03;8.45;;;6.43;;
1346;SDS011;667;48.796;9.480;2022-11-06T15:21:41;7.60;;;6.30;;
1346;SDS011;667;48.796;9.480;2022-11-06T15:24:16;10.02;;;7.97;;
1346;SDS011;667;48.796;9.480;2022-11-06T15:26:49;11.70;;;10.05;;
1346;SDS011;667;48.796;9.480;2022-11-06T15:29:20;8.43;;;7.55;;
1346;SDS011;667;48.796;9.480;2022-11-06T15:31:49;6.55;;;6.03;;
1346;SDS011;667;48.796;9.480;2022-11-06T15:34:31;7.28;;;6.57;;
1346;SDS011;667;48.796;9.480;2022-11-06T15:37:07;7.50;;;6.80;;
1346;SDS011;667;48.796;9.480;2022-11-06T15:39:40;7.43;;;6.72;;
1346;SDS011;667;48.796;9.480;2022-11-06T15:42:18;7.65;;;6.85;;
1346;SDS011;667;48.796;9.480;2022-11-06T15:44:46;9.50;;;8.40;;
1346;SDS011;667;48.796;9.480;2022-11-06T15:47:26;9.85;;;8.93;;
1346;SDS011;667;48.796;9.480;2022-11-06T15:52:45;12.15;;;10.82;;
1346;SDS011;667;48.796;9.480;2022-11-06T15:57:49;10.93;;;8.10;;
1346;SDS011;667;48.796;9.480;2022-11-06T16:00:19;9.37;;;8.47;;
1346;SDS011;667;48.796;9.480;2022-11-06T16:02:49;9.23;;;8.30;;
1346;SDS011;667;48.796;9.480;2022-11-06T16:05:15;9.27;;;8.48;;
1346;SDS011;667;48.796;9.480;2022-11-06T16:07:42;8.50;;;7.80;;
1346;SDS011;667;48.796;9.480;2022-11-06T16:10:20;11.30;;;10.20;;
1346;SDS011;667;48.796;9.480;2022-11-06T16:12:46;10.40;;;9.40;;
1346;SDS011;667;48.796;9.480;2022-11-06T16:23:19;9.20;;;8.30;;
1346;SDS011;667;48.796;9.480;2022-11-06T16:25:55;7.55;;;6.85;;
1346;SDS011;667;48.796;9.480;2022-11-06T16:28:23;7.18;;;6.47;;
1346;SDS011;667;48.796;9.480;2022-11-06T16:30:51;5.43;;;5.03;;
1346;SDS011;667;48.796;9.480;2022-11-06T16:33:20;13.80;;;12.60;;
1346;SDS011;667;48.796;9.480;2022-11-06T16:35:48;10.80;;;9.82;;
1346;SDS011;667;48.796;9.480;2022-11-06T16:40:48;10.27;;;9.40;;
1346;SDS011;667;48.796;9.480;2022-11-06T16:43:16;9.98;;;8.95;;
1346;SDS011;667;48.796;9.480;2022-11-06T16:48:37;6.57;;;6.03;;
1346;SDS011;667;48.796;9.480;2022-11-06T16:51:10;8.00;;;7.30;;
1346;SDS011;667;48.796;9.480;2022-11-06T16:56:22;8.93;;;8.13;;
1346;SDS011;667;48.796;9.480;2022-11-06T16:58:51;14.07;;;12.77;;
1346;SDS011;667;48.796;9.480;2022-11-06T17:01:20;12.63;;;11.52;;
1346;SDS011;667;48.796;9.480;2022-11-06T17:06:19;4.82;;;4.43;;
1346;SDS011;667;48.796;9.480;2022-11-06T17:08:55;4.07;;;3.78;;
1346;SDS011;667;48.796;9.480;2022-11-06T17:11:23;4.22;;;3.83;;
1346;SDS011;667;48.796;9.480;2022-11-06T17:13:49;4.67;;;4.27;;
1346;SDS011;667;48.796;9.480;2022-11-06T17:16:16;6.35;;;5.75;;
1346;SDS011;667;48.796;9.480;2022-11-06T17:18:44;8.85;;;8.10;;
1346;SDS011;667;48.796;9.480;2022-11-06T17:23:36;4.82;;;4.53;;
1346;SDS011;667;48.796;9.480;2022-11-06T17:26:04;5.18;;;4.68;;
1346;SDS011;667;48.796;9.480;2022-11-06T17:28:34;5.70;;;5.20;;
1346;SDS011;667;48.796;9.480;2022-11-06T17:31:00;4.90;;;4.50;;
1346;SDS011;667;48.796;9.480;2022-11-06T17:33:26;5.72;;;5.22;;
1346;SDS011;667;48.796;9.480;2022-11-06T17:35:52;5.57;;;5.10;;
1346;SDS011;667;48.796;9.480;2022-11-06T17:38:17;7.03;;;6.40;;
1346;SDS011;667;48.796;9.480;2022-11-06T17:40:43;8.63;;;7.73;;
1346;SDS011;667;48.796;9.480;2022-11-06T17:43:09;8.90;;;7.97;;
1346;SDS011;667;48.796;9.480;2022-11-06T17:45:36;8.00;;;7.20;;
1346;SDS011;667;48.796;9.480;2022-11-06T17:48:03;6.38;;;5.78;;
1346;SDS011;667;48.796;9.480;2022-11-06T17:50:29;8.75;;;7.03;;
1346;SDS011;667;48.796;9.480;2022-11-06T17:53:14;12.10;;;11.00;;
1346;SDS011;667;48.796;9.480;2022-11-06T17:55:40;5.80;;;5.20;;
1346;SDS011;667;48.796;9.480;2022-11-06T17:58:05;7.50;;;4.70;;
1346;SDS011;667;48.796;9.480;2022-11-06T18:00:31;8.37;;;7.53;;
1346;SDS011;667;48.796;9.480;2022-11-06T18:02:56;6.20;;;5.60;;
1346;SDS011;667;48.796;9.480;2022-11-06T18:05:22;8.60;;;7.70;;
1346;SDS011;667;48.796;9.480;2022-11-06T18:07:47;4.50;;;4.10;;
1346;SDS011;667;48.796;9.480;2022-11-06T18:10:13;7.10;;;6.40;;
1346;SDS011;667;48.796;9.480;2022-11-06T18:12:38;9.50;;;8.60;;
1346;SDS011;667;48.796;9.480;2022-11-06T18:15:04;9.63;;;8.73;;
1346;SDS011;667;48.796;9.480;2022-11-06T18:17:30;6.65;;;5.80;;
1346;SDS011;667;48.796;9.480;2022-11-06T18:19:56;5.30;;;4.20;;
1346;SDS011;667;48.796;9.480;2022-11-06T18:22:22;5.00;;;4.60;;
1346;SDS011;667;48.796;9.480;2022-11-06T18:24:47;4.87;;;4.47;;
1346;SDS011;667;48.796;9.480;2022-11-06T18:27:13;5.83;;;5.33;;
1346;SDS011;667;48.796;9.480;2022-11-06T18:29:38;6.33;;;5.83;;
1346;SDS011;667;48.796;9.480;2022-11-06T18:32:04;5.40;;;4.90;;
1346;SDS011;667;48.796;9.480;2022-11-06T18:34:30;6.20;;;5.60;;
1346;SDS011;667;48.796;9.480;2022-11-06T18:36:55;6.00;;;5.50;;
1346;SDS011;667;48.796;9.480;2022-11-06T18:39:21;7.33;;;6.63;;
1346;SDS011;667;48.796;9.480;2022-11-06T18:41:46;13.00;;;10.23;;
1346;SDS011;667;48.796;9.480;2022-11-06T18:44:13;7.90;;;7.20;;
1346;SDS011;667;48.796;9.480;2022-11-06T18:46:40;5.70;;;5.20;;
1346;SDS011;667;48.796;9.480;2022-11-06T18:49:08;5.37;;;4.83;;
1346;SDS011;667;48.796;9.480;2022-11-06T18:51:34;4.35;;;3.92;;
1346;SDS011;667;48.796;9.480;2022-11-06T18:54:00;16.67;;;14.93;;
1346;SDS011;667;48.796;9.480;2022-11-06T18:56:28;14.10;;;12.63;;
1346;SDS011;667;48.796;9.480;2022-11-06T18:58:54;26.60;;;23.97;;
1346;SDS011;667;48.796;9.480;2022-11-06T19:01:20;7.10;;;6.50;;
1346;SDS011;667;48.796;9.480;2022-11-06T19:03:47;5.53;;;4.38;;
1346;SDS011;667;48.796;9.480;2022-11-06T19:06:14;5.22;;;4.82;;